createdAt,value
2018-02-02T00:01:40.651Z,15.30
2018-02-02T00:04:08.389Z,10.50
2018-02-02T00:06:36.052Z,15.37
2018-02-02T00:09:03.715Z,22.27
2018-02-02T00:11:31.335Z,15.17
2018-02-02T00:13:58.957Z,15.73
2018-02-02T00:16:26.600Z,16.23
2018-02-02T00:18:54.218Z,25.20
2018-02-02T00:21:22.648Z,19.90
2018-02-02T00:23:50.266Z,15.03
2018-02-02T00:26:17.903Z,19.33
2018-02-02T00:28:46.353Z,13.67
2018-02-02T00:31:14.790Z,20.57
2018-02-02T00:33:42.408Z,19.77
2018-02-02T00:36:10.163Z,19.50
2018-02-02T00:38:37.914Z,21.10
2018-02-02T00:41:05.576Z,24.20
2018-02-02T00:43:33.202Z,20.03
2018-02-02T00:46:01.631Z,20.97
2018-02-02T00:48:29.266Z,16.87
2018-02-02T00:51:02.594Z,17.47
2018-02-02T00:53:30.246Z,19.70
2018-02-02T00:55:57.910Z,14.60
2018-02-02T00:58:25.551Z,21.93
2018-02-02T01:00:53.226Z,18.27
2018-02-02T01:03:20.872Z,23.70
2018-02-02T01:05:48.490Z,20.80
2018-02-02T01:08:16.919Z,16.80
2018-02-02T01:10:44.534Z,25.57
2018-02-02T01:13:12.917Z,17.70
2018-02-02T01:15:41.565Z,23.57
2018-02-02T01:18:09.174Z,16.83
2018-02-02T01:20:37.585Z,11.60
2018-02-02T01:23:05.199Z,22.80
2018-02-02T01:25:32.847Z,21.50
2018-02-02T01:28:00.685Z,21.00
2018-02-02T01:30:28.361Z,16.00
2018-02-02T01:32:56.117Z,25.43
2018-02-02T01:35:23.764Z,20.83
2018-02-02T01:37:51.464Z,18.60
2018-02-02T01:40:19.078Z,14.07
2018-02-02T01:42:46.730Z,23.03
2018-02-02T01:45:14.350Z,21.20
2018-02-02T01:47:41.961Z,19.27
2018-02-02T01:50:09.658Z,14.33
2018-02-02T01:52:37.285Z,17.40
2018-02-02T01:55:04.987Z,17.87
2018-02-02T01:57:32.606Z,17.77
2018-02-02T02:00:00.258Z,42.13
2018-02-02T02:02:28.638Z,18.00
2018-02-02T02:04:57.015Z,19.47
2018-02-02T02:07:25.431Z,20.73
2018-02-02T02:09:53.067Z,22.83
2018-02-02T02:12:20.734Z,20.70
2018-02-02T02:14:48.353Z,21.40
2018-02-02T02:17:16.050Z,16.73
2018-02-02T02:19:43.681Z,22.23
2018-02-02T02:22:11.300Z,19.60
2018-02-02T02:24:38.941Z,20.17
2018-02-02T02:27:06.558Z,19.90
2018-02-02T02:29:34.306Z,20.37
2018-02-02T02:32:01.929Z,23.67
2018-02-02T02:34:29.582Z,18.63
2018-02-02T02:36:57.207Z,23.80
2018-02-02T02:39:24.833Z,19.40
2018-02-02T02:41:52.479Z,15.93
2018-02-02T02:44:20.203Z,18.03
2018-02-02T02:46:47.847Z,15.73
2018-02-02T02:49:15.466Z,22.50
2018-02-02T02:51:43.162Z,15.07
2018-02-02T02:54:10.787Z,21.90
2018-02-02T02:56:38.506Z,23.27
2018-02-02T02:59:07.659Z,16.60
2018-02-02T03:01:35.393Z,23.20
2018-02-02T03:04:03.814Z,22.93
2018-02-02T03:06:31.446Z,20.37
2018-02-02T03:08:59.906Z,20.97
2018-02-02T03:11:28.454Z,22.70
2018-02-02T03:13:56.209Z,19.27
2018-02-02T03:16:23.973Z,21.40
2018-02-02T03:18:51.603Z,18.87
2018-02-02T03:21:19.300Z,18.30
2018-02-02T03:23:46.935Z,29.60
2018-02-02T03:26:14.650Z,19.70
2018-02-02T03:28:42.298Z,20.30
2018-02-02T03:31:09.941Z,23.00
2018-02-02T03:33:37.582Z,25.17
2018-02-02T03:36:05.186Z,16.50
2018-02-02T03:38:33.614Z,23.77
2018-02-02T03:41:01.990Z,21.70
2018-02-02T03:43:30.371Z,27.83
2018-02-02T03:45:58.797Z,20.13
2018-02-02T03:48:26.410Z,16.07
2018-02-02T03:50:54.842Z,22.83
2018-02-02T03:53:22.446Z,21.63
2018-02-02T03:55:50.867Z,18.70
2018-02-02T03:58:18.490Z,26.47
2018-02-02T04:00:46.884Z,19.90
2018-02-02T04:03:14.525Z,22.30
2018-02-02T04:05:42.908Z,18.53
2018-02-02T04:08:11.324Z,20.90
2018-02-02T04:10:39.021Z,20.10
2018-02-02T04:13:06.638Z,16.90
2018-02-02T04:15:34.289Z,20.10
2018-02-02T04:18:01.903Z,12.97
2018-02-02T04:20:29.550Z,20.37
2018-02-02T04:22:57.182Z,22.27
2018-02-02T04:25:24.820Z,17.03
2018-02-02T04:27:53.246Z,16.03
2018-02-02T04:30:20.870Z,16.13
2018-02-02T04:32:48.514Z,21.53
2018-02-02T04:35:26.817Z,18.43
2018-02-02T04:37:54.500Z,16.87
2018-02-02T04:40:22.872Z,17.97
2018-02-02T04:42:51.251Z,19.17
2018-02-02T04:45:19.661Z,14.60
2018-02-02T04:47:47.285Z,12.37
2018-02-02T04:50:14.945Z,14.43
2018-02-02T04:52:43.346Z,17.23
2018-02-02T04:55:11.782Z,16.07
2018-02-02T04:57:39.414Z,16.70
2018-02-02T05:00:07.026Z,19.10
2018-02-02T05:02:34.674Z,13.17
2018-02-02T05:05:02.302Z,16.63
2018-02-02T05:07:29.963Z,12.47
2018-02-02T05:09:57.696Z,20.43
2018-02-02T05:12:26.736Z,19.63
2018-02-02T05:14:54.349Z,15.60
2018-02-02T05:17:22.796Z,22.37
2018-02-02T05:19:51.912Z,16.20
2018-02-02T05:22:20.301Z,17.43
2018-02-02T05:24:48.718Z,12.30
2018-02-02T05:27:16.346Z,17.87
2018-02-02T05:29:44.750Z,18.20
2018-02-02T05:32:12.407Z,19.83
2018-02-02T05:34:40.047Z,20.07
2018-02-02T05:37:08.491Z,13.80
2018-02-02T05:39:36.113Z,17.67
2018-02-02T05:42:03.728Z,15.07
2018-02-02T05:44:31.376Z,12.30
2018-02-02T05:46:58.998Z,24.03
2018-02-02T05:49:26.661Z,16.53
2018-02-02T05:51:54.271Z,15.70
2018-02-02T05:54:21.908Z,19.90
2018-02-02T05:56:49.772Z,21.40
2018-02-02T05:59:17.449Z,16.83
2018-02-02T06:01:45.092Z,17.63
2018-02-02T06:04:12.714Z,13.97
2018-02-02T06:06:41.093Z,20.83
2018-02-02T06:09:09.519Z,19.60
2018-02-02T06:11:37.135Z,22.27
2018-02-02T06:14:05.662Z,19.03
2018-02-02T06:16:33.270Z,21.30
2018-02-02T06:19:01.657Z,19.30
2018-02-02T06:21:30.114Z,17.20
2018-02-02T06:23:57.730Z,18.80
2018-02-02T06:26:25.380Z,16.87
2018-02-02T06:28:52.997Z,14.07
2018-02-02T06:31:20.621Z,14.50
2018-02-02T06:33:48.276Z,18.33
2018-02-02T06:36:15.890Z,15.80
2018-02-02T06:38:44.338Z,23.07
2018-02-02T06:41:11.955Z,13.53
2018-02-02T06:43:40.342Z,17.13
2018-02-02T06:46:08.780Z,20.93
2018-02-02T06:48:36.406Z,16.10
2018-02-02T06:51:04.071Z,19.37
2018-02-02T06:53:31.866Z,18.63
2018-02-02T06:55:59.500Z,14.63
2018-02-02T06:58:27.147Z,15.47
2018-02-02T07:00:54.758Z,14.90
2018-02-02T07:03:22.458Z,14.63
2018-02-02T07:05:50.827Z,18.80
2018-02-02T07:08:19.202Z,11.67
2018-02-02T07:10:47.622Z,17.00
2018-02-02T07:13:15.242Z,11.17
2018-02-02T07:15:43.694Z,17.23
2018-02-02T07:18:11.318Z,14.13
2018-02-02T07:20:39.002Z,19.73
2018-02-02T07:23:06.646Z,23.13
2018-02-02T07:25:34.294Z,13.60
2018-02-02T07:28:01.906Z,11.70
2018-02-02T07:30:29.561Z,14.07
2018-02-02T07:32:57.181Z,19.17
2018-02-02T07:35:24.826Z,14.83
2018-02-02T07:37:53.218Z,14.87
2018-02-02T07:40:20.914Z,15.07
2018-02-02T07:42:48.533Z,13.10
2018-02-02T07:45:16.956Z,10.80
2018-02-02T07:50:18.486Z,16.10
2018-02-02T07:52:46.866Z,15.03
2018-02-02T07:55:15.287Z,16.80
2018-02-02T07:57:42.894Z,12.60
2018-02-02T08:00:11.277Z,13.43
2018-02-02T08:02:39.679Z,15.97
2018-02-02T08:05:07.470Z,20.60
2018-02-02T08:07:35.337Z,16.13
2018-02-02T08:10:03.012Z,16.30
2018-02-02T08:12:30.657Z,12.20
2018-02-02T08:14:58.279Z,14.90
2018-02-02T08:17:26.737Z,20.30
2018-02-02T08:19:54.350Z,15.13
2018-02-02T08:22:21.960Z,16.00
2018-02-02T08:24:49.604Z,14.70
2018-02-02T08:27:17.231Z,12.23
2018-02-02T08:29:44.880Z,11.73
2018-02-02T08:32:12.498Z,18.30
2018-02-02T08:34:40.129Z,11.47
2018-02-02T08:37:07.775Z,17.57
2018-02-02T08:39:35.386Z,13.73
2018-02-02T08:42:03.034Z,20.03
2018-02-02T08:44:30.645Z,10.67
2018-02-02T08:46:59.018Z,13.77
2018-02-02T08:49:27.452Z,15.43
2018-02-02T08:51:55.062Z,11.60
2018-02-02T08:54:23.508Z,13.17
2018-02-02T08:56:51.126Z,12.30
2018-02-02T08:59:18.826Z,17.20
2018-02-02T09:01:52.104Z,12.33
2018-02-02T09:04:19.716Z,11.60
2018-02-02T09:06:48.125Z,15.90
2018-02-02T09:09:15.737Z,14.20
2018-02-02T09:11:43.383Z,13.63
2018-02-02T09:14:11.040Z,13.13
2018-02-02T09:16:38.674Z,9.53
2018-02-02T09:19:06.317Z,10.23
2018-02-02T09:21:33.943Z,13.20
2018-02-02T09:24:01.810Z,17.77
2018-02-02T09:26:29.446Z,11.30
2018-02-02T09:28:57.102Z,10.83
2018-02-02T09:31:24.871Z,9.27
2018-02-02T09:33:52.492Z,10.50
2018-02-02T09:36:22.014Z,15.83
2018-02-02T09:38:49.640Z,12.10
2018-02-02T09:41:18.058Z,11.73
2018-02-02T09:43:45.758Z,13.93
2018-02-02T09:46:13.508Z,8.20
2018-02-02T09:48:41.119Z,7.40
2018-02-02T09:51:09.525Z,11.20
2018-02-02T09:53:37.311Z,11.63
2018-02-02T09:56:05.012Z,8.77
2018-02-02T09:58:32.612Z,7.63
2018-02-02T10:01:00.304Z,11.43
2018-02-02T10:03:27.957Z,7.17
2018-02-02T10:05:55.561Z,7.93
2018-02-02T10:08:23.982Z,10.07
2018-02-02T10:10:51.665Z,10.03
2018-02-02T10:13:19.294Z,8.93
2018-02-02T10:15:46.894Z,9.70
2018-02-02T10:18:14.595Z,10.03
2018-02-02T10:20:43.040Z,7.67
2018-02-02T10:23:10.706Z,8.37
2018-02-02T10:25:38.318Z,6.10
2018-02-02T10:28:05.951Z,8.30
2018-02-02T10:30:33.573Z,8.57
2018-02-02T10:33:01.207Z,9.90
2018-02-02T10:35:29.005Z,7.53
2018-02-02T10:37:56.915Z,6.80
2018-02-02T10:40:25.291Z,6.13
2018-02-02T10:42:53.705Z,6.57
2018-02-02T10:45:21.328Z,6.77
2018-02-02T10:47:48.981Z,4.87
2018-02-02T10:50:16.598Z,5.67
2018-02-02T10:52:44.201Z,7.27
2018-02-02T10:55:11.852Z,5.87
2018-02-02T10:57:39.456Z,7.00
2018-02-02T11:00:07.987Z,3.67
2018-02-02T11:02:41.425Z,4.53
2018-02-02T11:05:09.062Z,5.27
2018-02-02T11:07:36.686Z,5.50
2018-02-02T11:10:04.304Z,5.70
2018-02-02T11:12:31.942Z,5.27
2018-02-02T11:14:59.560Z,4.83
2018-02-02T11:17:27.238Z,7.40
2018-02-02T11:19:54.854Z,4.80
2018-02-02T11:22:23.270Z,6.10
2018-02-02T11:24:50.884Z,5.13
2018-02-02T11:27:19.289Z,4.70
2018-02-02T11:29:47.695Z,4.90
2018-02-02T11:32:15.302Z,6.87
2018-02-02T11:34:42.951Z,4.97
2018-02-02T11:37:10.560Z,5.20
2018-02-02T11:39:38.942Z,4.50
2018-02-02T11:42:06.586Z,3.90
2018-02-02T11:44:35.022Z,7.03
2018-02-02T11:47:02.677Z,4.90
2018-02-02T11:49:30.291Z,3.53
2018-02-02T11:51:58.675Z,4.70
2018-02-02T11:54:27.078Z,4.10
2018-02-02T11:56:54.809Z,4.13
2018-02-02T11:59:22.458Z,5.00
2018-02-02T12:01:50.067Z,4.10
2018-02-02T12:04:17.856Z,6.60
2018-02-02T12:06:45.503Z,5.87
2018-02-02T12:09:13.122Z,3.83
2018-02-02T12:11:41.546Z,4.20
2018-02-02T12:14:09.254Z,4.43
2018-02-02T12:16:39.471Z,3.83
2018-02-02T12:19:08.020Z,3.97
2018-02-02T12:21:36.302Z,4.30
2018-02-02T12:27:03.548Z,3.33
2018-02-02T12:29:42.012Z,3.00
2018-02-02T12:32:15.262Z,4.60
2018-02-02T12:34:44.797Z,3.50
2018-02-02T12:37:12.388Z,6.07
2018-02-02T12:39:40.773Z,3.63
2018-02-02T12:42:09.232Z,3.90
2018-02-02T12:44:38.359Z,3.90
2018-02-02T12:47:06.716Z,5.30
2018-02-02T12:49:34.316Z,4.30
2018-02-02T12:52:01.941Z,4.43
2018-02-02T12:54:29.528Z,3.30
2018-02-02T12:56:57.162Z,6.10
2018-02-02T12:59:24.749Z,5.50
2018-02-02T13:01:52.440Z,5.13
2018-02-02T13:04:20.053Z,6.23
2018-02-02T13:06:48.412Z,5.47
2018-02-02T13:09:16.029Z,3.70
2018-02-02T13:11:43.632Z,4.80
2018-02-02T13:14:11.220Z,7.40
2018-02-02T13:16:39.608Z,6.63
2018-02-02T13:19:07.411Z,6.00
2018-02-02T13:21:35.051Z,4.50
2018-02-02T13:24:02.641Z,5.37
2018-02-02T13:26:30.272Z,7.60
2018-02-02T13:28:57.900Z,5.60
2018-02-02T13:31:26.533Z,4.47
2018-02-02T13:33:54.119Z,6.90
2018-02-02T13:36:21.744Z,4.83
2018-02-02T13:38:49.337Z,6.73
2018-02-02T13:41:16.943Z,5.90
2018-02-02T13:43:44.536Z,8.97
2018-02-02T13:46:12.162Z,10.97
2018-02-02T13:48:40.525Z,10.90
2018-02-02T13:51:08.900Z,7.83
2018-02-02T13:53:36.501Z,9.50
2018-02-02T13:56:04.109Z,8.13
2018-02-02T13:58:31.703Z,14.73
2018-02-02T14:00:59.400Z,6.17
2018-02-02T14:03:27.000Z,7.63
2018-02-02T14:05:54.626Z,9.60
2018-02-02T14:08:22.220Z,7.77
2018-02-02T14:10:49.845Z,8.27
2018-02-02T14:13:17.432Z,7.07
2018-02-02T14:15:45.065Z,8.00
2018-02-02T14:18:12.653Z,10.07
2018-02-02T14:20:40.232Z,7.93
2018-02-02T14:23:08.632Z,8.97
2018-02-02T14:25:36.233Z,11.60
2018-02-02T14:28:03.869Z,11.33
2018-02-02T14:30:31.484Z,7.63
2018-02-02T14:32:59.951Z,14.50
2018-02-02T14:35:27.563Z,9.27
2018-02-02T14:37:55.151Z,11.47
2018-02-02T14:40:22.789Z,13.43
2018-02-02T14:42:50.382Z,10.63
2018-02-02T14:45:17.972Z,16.40
2018-02-02T14:47:45.604Z,10.70
2018-02-02T14:50:13.193Z,11.70
2018-02-02T14:52:41.595Z,14.13
2018-02-02T14:55:09.194Z,13.87
2018-02-02T14:57:36.797Z,10.70
2018-02-02T15:00:05.180Z,10.77
2018-02-02T15:02:33.546Z,15.40
2018-02-02T15:05:01.172Z,9.40
2018-02-02T15:07:28.780Z,11.47
2018-02-02T15:09:57.140Z,10.90
2018-02-02T15:12:24.868Z,10.77
2018-02-02T15:14:52.471Z,14.03
2018-02-02T15:17:20.862Z,10.90
2018-02-02T15:19:49.208Z,10.73
2018-02-02T15:22:20.496Z,13.17
2018-02-02T15:24:48.135Z,9.33
2018-02-02T15:27:15.761Z,12.27
2018-02-02T15:29:43.384Z,16.63
2018-02-02T15:32:11.000Z,13.07
2018-02-02T15:34:38.619Z,12.20
2018-02-02T15:37:06.213Z,11.80
2018-02-02T15:39:33.840Z,11.43
2018-02-02T15:42:01.424Z,13.57
2018-02-02T15:44:29.042Z,11.30
2018-02-02T15:46:57.396Z,10.80
2018-02-02T15:49:25.020Z,9.67
2018-02-02T15:51:52.615Z,13.80
2018-02-02T15:54:24.007Z,11.97
2018-02-02T15:56:52.637Z,36.23
2018-02-02T15:59:20.240Z,16.73
2018-02-02T16:01:47.866Z,14.47
2018-02-02T16:04:15.525Z,14.47
2018-02-02T16:06:43.149Z,9.97
2018-02-02T16:09:10.732Z,14.17
2018-02-02T16:11:38.357Z,13.17
2018-02-02T16:14:06.153Z,10.80
2018-02-02T16:16:33.744Z,14.90
2018-02-02T16:19:02.130Z,17.73
2018-02-02T16:21:30.481Z,16.60
2018-02-02T16:23:58.108Z,17.50
2018-02-02T16:26:25.708Z,17.67
2018-02-02T16:28:53.343Z,9.63
2018-02-02T16:31:20.964Z,15.63
2018-02-02T16:33:49.329Z,14.57
2018-02-02T16:36:17.929Z,19.83
2018-02-02T16:38:46.292Z,15.70
2018-02-02T16:41:14.684Z,11.00
2018-02-02T16:43:43.120Z,17.67
2018-02-02T16:46:10.748Z,27.53
2018-02-02T16:48:38.340Z,19.80
2018-02-02T16:51:05.965Z,12.90
2018-02-02T16:53:33.548Z,16.57
2018-02-02T16:56:01.180Z,14.43
2018-02-02T16:58:28.772Z,18.90
2018-02-02T17:00:56.412Z,11.20
2018-02-02T17:03:23.997Z,16.57
2018-02-02T17:05:51.675Z,12.17
2018-02-02T17:08:19.244Z,15.60
2018-02-02T17:10:47.637Z,12.37
2018-02-02T17:13:16.025Z,12.27
2018-02-02T17:15:44.378Z,15.07
2018-02-02T17:18:12.000Z,14.20
2018-02-02T17:20:39.600Z,11.50
2018-02-02T17:23:07.221Z,14.17
2018-02-02T17:25:34.817Z,10.47
2018-02-02T17:28:03.176Z,9.60
2018-02-02T17:30:30.799Z,12.57
2018-02-02T17:32:58.400Z,13.70
2018-02-02T17:35:26.021Z,12.07
2018-02-02T17:37:55.683Z,13.50
2018-02-02T17:40:23.429Z,13.83
2018-02-02T17:42:51.054Z,12.33
2018-02-02T17:45:18.649Z,15.90
2018-02-02T17:47:46.277Z,11.07
2018-02-02T17:50:13.868Z,14.60
2018-02-02T17:52:41.473Z,12.63
2018-02-02T17:55:09.865Z,10.57
2018-02-02T17:57:38.230Z,10.60
2018-02-02T18:00:05.852Z,9.37
2018-02-02T18:02:50.106Z,16.37
2018-02-02T18:05:17.761Z,15.30
2018-02-02T18:07:45.368Z,9.90
2018-02-02T18:10:13.739Z,10.33
2018-02-02T18:12:42.149Z,10.57
2018-02-02T18:15:09.748Z,20.47
2018-02-02T18:17:37.366Z,13.60
2018-02-02T18:20:04.994Z,13.40
2018-02-02T18:22:32.622Z,16.00
2018-02-02T18:25:00.222Z,14.33
2018-02-02T18:27:27.819Z,15.40
2018-02-02T18:29:55.453Z,15.67
2018-02-02T18:32:23.884Z,15.67
2018-02-02T18:34:51.506Z,11.10
2018-02-02T18:37:19.883Z,10.90
2018-02-02T18:39:48.301Z,13.13
2018-02-02T18:42:15.920Z,10.40
2018-02-02T18:44:44.281Z,18.40
2018-02-02T18:47:11.900Z,16.73
2018-02-02T18:49:39.494Z,12.20
2018-02-02T18:52:07.125Z,16.33
2018-02-02T18:54:34.720Z,16.70
2018-02-02T18:57:02.312Z,13.10
2018-02-02T18:59:29.928Z,12.40
2018-02-02T19:01:57.525Z,10.70
2018-02-02T19:04:25.924Z,13.93
2018-02-02T19:06:53.612Z,12.80
2018-02-02T19:09:21.204Z,12.03
2018-02-02T19:11:48.836Z,10.17
2018-02-02T19:14:16.429Z,12.40
2018-02-02T19:16:44.050Z,9.27
2018-02-02T19:19:11.644Z,9.50
2018-02-02T19:21:39.236Z,8.73
2018-02-02T19:24:06.847Z,11.37
2018-02-02T19:26:34.441Z,7.97
2018-02-02T19:31:37.498Z,5.90
2018-02-02T19:34:05.124Z,8.80
2018-02-02T19:36:32.713Z,7.23
2018-02-02T19:39:00.296Z,7.67
2018-02-02T19:41:27.912Z,8.93
2018-02-02T19:43:55.501Z,8.13
2018-02-02T19:46:23.128Z,6.70
2018-02-02T19:48:50.717Z,8.73
2018-02-02T19:51:18.305Z,7.10
2018-02-02T19:53:45.921Z,7.70
2018-02-02T19:56:13.508Z,11.60
2018-02-02T19:58:41.136Z,13.33
2018-02-02T20:01:08.729Z,7.67
2018-02-02T20:03:36.320Z,7.00
2018-02-02T20:06:04.716Z,9.17
2018-02-02T20:08:33.072Z,6.90
2018-02-02T20:11:00.703Z,10.20
2018-02-02T20:13:30.068Z,11.90
2018-02-02T20:15:57.815Z,10.10
2018-02-02T20:18:27.447Z,9.40
2018-02-02T20:20:55.035Z,9.23
2018-02-02T20:23:22.668Z,11.43
2018-02-02T20:25:50.253Z,9.13
2018-02-02T20:28:18.574Z,11.27
2018-02-02T20:30:46.235Z,10.83
2018-02-02T20:33:13.829Z,7.73
2018-02-02T20:35:41.444Z,9.77
2018-02-02T20:38:09.041Z,10.57
2018-02-02T20:40:37.432Z,11.70
2018-02-02T20:43:05.026Z,9.43
2018-02-02T20:45:32.613Z,8.97
2018-02-02T20:48:00.224Z,10.27
2018-02-02T20:50:27.844Z,9.20
2018-02-02T20:52:55.448Z,8.30
2018-02-02T20:55:23.044Z,13.23
2018-02-02T20:57:50.670Z,7.50
2018-02-02T21:00:18.268Z,10.40
2018-02-02T21:02:45.885Z,7.17
2018-02-02T21:05:13.474Z,7.97
2018-02-02T21:07:41.092Z,7.77
2018-02-02T21:10:08.681Z,6.87
2018-02-02T21:12:36.277Z,8.47
2018-02-02T21:15:04.007Z,7.47
2018-02-02T21:17:31.596Z,5.60
2018-02-02T21:19:59.218Z,7.53
2018-02-02T21:22:26.814Z,5.87
2018-02-02T21:24:54.396Z,7.33
2018-02-02T21:27:22.777Z,5.23
2018-02-02T21:29:51.129Z,7.97
2018-02-02T21:32:18.749Z,8.50
2018-02-02T21:34:46.333Z,8.03
2018-02-02T21:37:14.097Z,9.03
2018-02-02T21:39:41.694Z,10.70
2018-02-02T21:42:09.289Z,10.67
2018-02-02T21:44:37.178Z,11.70
2018-02-02T21:47:04.773Z,10.57
2018-02-02T21:49:32.368Z,9.57
2018-02-02T21:51:59.996Z,10.97
2018-02-02T21:54:27.601Z,10.00
2018-02-02T21:56:55.199Z,11.03
2018-02-02T21:59:22.830Z,10.13
2018-02-02T22:01:50.421Z,10.67
2018-02-02T22:04:18.015Z,13.13
2018-02-02T22:06:46.398Z,12.30
2018-02-02T22:09:14.758Z,11.73
2018-02-02T22:11:42.380Z,16.13
2018-02-02T22:14:10.161Z,14.10
2018-02-02T22:16:38.026Z,14.33
2018-02-02T22:19:05.997Z,14.40
2018-02-02T22:21:33.739Z,13.70
2018-02-02T22:24:01.626Z,21.07
2018-02-02T22:26:29.493Z,14.60
2018-02-02T22:28:57.383Z,16.13
2018-02-02T22:31:25.225Z,17.43
2018-02-02T22:33:53.102Z,17.27
2018-02-02T22:36:20.692Z,21.97
2018-02-02T22:38:49.053Z,21.13
2018-02-02T22:41:16.685Z,18.40
2018-02-02T22:43:44.282Z,24.60
2018-02-02T22:46:12.083Z,24.83
2018-02-02T22:48:39.721Z,24.70
2018-02-02T22:51:08.082Z,24.47
2018-02-02T22:53:35.679Z,22.93
2018-02-02T22:56:03.338Z,23.83
2018-02-02T22:58:30.941Z,24.40
2018-02-02T23:00:58.533Z,25.60
2018-02-02T23:03:27.712Z,23.70
2018-02-02T23:05:55.361Z,27.57
2018-02-02T23:08:22.955Z,22.93
2018-02-02T23:10:51.352Z,22.97
2018-02-02T23:13:19.717Z,27.53
2018-02-02T23:15:48.117Z,26.47
2018-02-02T23:18:15.713Z,26.37
2018-02-02T23:20:43.309Z,28.07
2018-02-02T23:23:10.929Z,26.63
2018-02-02T23:25:38.700Z,24.40
2018-02-02T23:28:06.324Z,30.77
2018-02-02T23:30:33.956Z,33.60
2018-02-02T23:33:02.324Z,21.50
2018-02-02T23:35:29.941Z,25.93
2018-02-02T23:37:57.541Z,29.37
2018-02-02T23:40:25.176Z,27.93
2018-02-02T23:42:52.777Z,25.70
2018-02-02T23:45:20.367Z,21.67
2018-02-02T23:47:47.989Z,13.40
2018-02-02T23:50:15.624Z,9.03
2018-02-02T23:52:43.247Z,8.77
2018-02-02T23:55:10.842Z,7.27
2018-02-02T23:57:38.432Z,4.63
